sensor_id;sensor_type;location;lat;lon;timestamp;temperature;humidity
47861;HTU21D;33620;52.340;5.984;2022-11-25T00:03:39;8.47;87.91
47861;HTU21D;33620;52.340;5.984;2022-11-25T00:06:15;8.48;87.96
47861;HTU21D;33620;52.340;5.984;2022-11-25T00:08:42;8.47;88.00
47861;HTU21D;33620;52.340;5.984;2022-11-25T00:11:09;8.47;88.06
47861;HTU21D;33620;52.340;5.984;2022-11-25T00:13:35;8.48;88.15
47861;HTU21D;33620;52.340;5.984;2022-11-25T00:16:05;8.48;88.19
47861;HTU21D;33620;52.340;5.984;2022-11-25T00:18:31;8.47;88.22
47861;HTU21D;33620;52.340;5.984;2022-11-25T00:20:57;8.48;88.23
47861;HTU21D;33620;52.340;5.984;2022-11-25T00:23:23;8.49;88.27
47861;HTU21D;33620;52.340;5.984;2022-11-25T00:25:48;8.49;88.26
47861;HTU21D;33620;52.340;5.984;2022-11-25T00:28:13;8.48;88.33
47861;HTU21D;33620;52.340;5.984;2022-11-25T00:30:39;8.50;88.38
47861;HTU21D;33620;52.340;5.984;2022-11-25T00:33:04;8.51;88.37
47861;HTU21D;33620;52.340;5.984;2022-11-25T00:35:30;8.50;88.44
47861;HTU21D;33620;52.340;5.984;2022-11-25T00:37:55;8.52;88.53
47861;HTU21D;33620;52.340;5.984;2022-11-25T00:40:20;8.51;88.75
47861;HTU21D;33620;52.340;5.984;2022-11-25T00:42:46;8.53;88.87
47861;HTU21D;33620;52.340;5.984;2022-11-25T00:45:46;8.53;89.23
47861;HTU21D;33620;52.340;5.984;2022-11-25T00:48:12;8.52;89.57
47861;HTU21D;33620;52.340;5.984;2022-11-25T00:50:37;8.52;89.89
47861;HTU21D;33620;52.340;5.984;2022-11-25T00:53:02;8.49;90.16
47861;HTU21D;33620;52.340;5.984;2022-11-25T00:55:28;8.50;90.36
47861;HTU21D;33620;52.340;5.984;2022-11-25T00:58:13;8.49;90.59
47861;HTU21D;33620;52.340;5.984;2022-11-25T01:00:38;8.48;90.79
47861;HTU21D;33620;52.340;5.984;2022-11-25T01:03:04;8.45;91.11
47861;HTU21D;33620;52.340;5.984;2022-11-25T01:05:29;8.45;91.31
47861;HTU21D;33620;52.340;5.984;2022-11-25T01:07:54;8.44;91.54
47861;HTU21D;33620;52.340;5.984;2022-11-25T01:10:20;8.44;91.67
47861;HTU21D;33620;52.340;5.984;2022-11-25T01:12:46;8.43;91.93
47861;HTU21D;33620;52.340;5.984;2022-11-25T01:15:11;8.43;92.18
47861;HTU21D;33620;52.340;5.984;2022-11-25T01:17:37;8.44;92.41
47861;HTU21D;33620;52.340;5.984;2022-11-25T01:20:02;8.45;92.55
47861;HTU21D;33620;52.340;5.984;2022-11-25T01:22:28;8.46;92.69
47861;HTU21D;33620;52.340;5.984;2022-11-25T01:24:53;8.48;92.79
47861;HTU21D;33620;52.340;5.984;2022-11-25T01:27:18;8.48;92.89
47861;HTU21D;33620;52.340;5.984;2022-11-25T01:29:44;8.48;93.08
47861;HTU21D;33620;52.340;5.984;2022-11-25T01:32:09;8.51;93.30
47861;HTU21D;33620;52.340;5.984;2022-11-25T01:34:34;8.52;93.38
47861;HTU21D;33620;52.340;5.984;2022-11-25T01:37:01;8.56;93.50
47861;HTU21D;33620;52.340;5.984;2022-11-25T01:39:27;8.55;93.55
47861;HTU21D;33620;52.340;5.984;2022-11-25T01:41:52;8.57;93.66
47861;HTU21D;33620;52.340;5.984;2022-11-25T01:44:18;8.56;93.70
47861;HTU21D;33620;52.340;5.984;2022-11-25T01:52:37;8.59;94.01
47861;HTU21D;33620;52.340;5.984;2022-11-25T01:55:17;8.59;93.94
47861;HTU21D;33620;52.340;5.984;2022-11-25T01:57:57;8.59;94.03
47861;HTU21D;33620;52.340;5.984;2022-11-25T02:00:23;8.59;94.04
47861;HTU21D;33620;52.340;5.984;2022-11-25T02:02:51;8.58;94.04
47861;HTU21D;33620;52.340;5.984;2022-11-25T02:05:20;8.58;94.04
47861;HTU21D;33620;52.340;5.984;2022-11-25T02:07:48;8.59;94.21
47861;HTU21D;33620;52.340;5.984;2022-11-25T02:10:17;8.59;94.14
47861;HTU21D;33620;52.340;5.984;2022-11-25T02:12:46;8.57;94.04
47861;HTU21D;33620;52.340;5.984;2022-11-25T02:15:13;8.56;94.20
47861;HTU21D;33620;52.340;5.984;2022-11-25T02:17:39;8.57;94.17
47861;HTU21D;33620;52.340;5.984;2022-11-25T02:20:09;8.58;94.26
47861;HTU21D;33620;52.340;5.984;2022-11-25T02:25:34;8.58;94.30
47861;HTU21D;33620;52.340;5.984;2022-11-25T02:28:28;8.57;94.28
47861;HTU21D;33620;52.340;5.984;2022-11-25T02:30:55;8.58;94.23
47861;HTU21D;33620;52.340;5.984;2022-11-25T02:33:20;8.56;94.30
47861;HTU21D;33620;52.340;5.984;2022-11-25T02:38:22;8.56;94.33
47861;HTU21D;33620;52.340;5.984;2022-11-25T02:40:55;8.57;94.36
47861;HTU21D;33620;52.340;5.984;2022-11-25T02:43:24;8.53;94.28
47861;HTU21D;33620;52.340;5.984;2022-11-25T02:48:21;8.56;94.67
47861;HTU21D;33620;52.340;5.984;2022-11-25T02:50:47;8.56;94.60
47861;HTU21D;33620;52.340;5.984;2022-11-25T02:53:13;8.55;94.65
47861;HTU21D;33620;52.340;5.984;2022-11-25T02:55:38;8.53;94.72
47861;HTU21D;33620;52.340;5.984;2022-11-25T02:58:04;8.57;94.77
47861;HTU21D;33620;52.340;5.984;2022-11-25T03:00:29;8.57;94.87
47861;HTU21D;33620;52.340;5.984;2022-11-25T03:02:54;8.57;94.90
47861;HTU21D;33620;52.340;5.984;2022-11-25T03:05:21;8.58;94.94
47861;HTU21D;33620;52.340;5.984;2022-11-25T03:07:47;8.59;94.90
47861;HTU21D;33620;52.340;5.984;2022-11-25T03:10:13;8.60;95.02
47861;HTU21D;33620;52.340;5.984;2022-11-25T03:12:38;8.60;95.00
47861;HTU21D;33620;52.340;5.984;2022-11-25T03:15:04;8.59;94.90
47861;HTU21D;33620;52.340;5.984;2022-11-25T03:17:30;8.60;95.01
47861;HTU21D;33620;52.340;5.984;2022-11-25T03:19:55;8.58;95.09
47861;HTU21D;33620;52.340;5.984;2022-11-25T03:22:22;8.59;95.08
47861;HTU21D;33620;52.340;5.984;2022-11-25T03:24:47;8.59;95.17
47861;HTU21D;33620;52.340;5.984;2022-11-25T03:27:12;8.61;95.34
47861;HTU21D;33620;52.340;5.984;2022-11-25T03:29:38;8.62;95.33
47861;HTU21D;33620;52.340;5.984;2022-11-25T03:32:03;8.64;95.26
47861;HTU21D;33620;52.340;5.984;2022-11-25T03:34:29;8.66;95.26
47861;HTU21D;33620;52.340;5.984;2022-11-25T03:36:54;8.67;95.20
47861;HTU21D;33620;52.340;5.984;2022-11-25T03:39:19;8.66;95.20
47861;HTU21D;33620;52.340;5.984;2022-11-25T03:41:45;8.67;95.22
47861;HTU21D;33620;52.340;5.984;2022-11-25T03:44:10;8.66;95.26
47861;HTU21D;33620;52.340;5.984;2022-11-25T03:46:36;8.67;95.24
47861;HTU21D;33620;52.340;5.984;2022-11-25T03:49:01;8.67;95.23
47861;HTU21D;33620;52.340;5.984;2022-11-25T03:51:26;8.66;95.15
47861;HTU21D;33620;52.340;5.984;2022-11-25T03:53:52;8.66;95.25
47861;HTU21D;33620;52.340;5.984;2022-11-25T03:56:18;8.66;95.27
47861;HTU21D;33620;52.340;5.984;2022-11-25T03:58:43;8.67;95.43
47861;HTU21D;33620;52.340;5.984;2022-11-25T04:01:08;8.68;95.51
47861;HTU21D;33620;52.340;5.984;2022-11-25T04:03:34;8.71;95.50
47861;HTU21D;33620;52.340;5.984;2022-11-25T04:05:59;8.72;95.49
47861;HTU21D;33620;52.340;5.984;2022-11-25T04:08:24;8.74;95.50
47861;HTU21D;33620;52.340;5.984;2022-11-25T04:10:51;8.76;95.46
47861;HTU21D;33620;52.340;5.984;2022-11-25T04:13:17;8.78;95.39
47861;HTU21D;33620;52.340;5.984;2022-11-25T04:15:44;8.76;95.36
47861;HTU21D;33620;52.340;5.984;2022-11-25T04:18:11;8.77;95.28
47861;HTU21D;33620;52.340;5.984;2022-11-25T04:20:37;8.76;95.39
47861;HTU21D;33620;52.340;5.984;2022-11-25T04:23:02;8.76;95.36
47861;HTU21D;33620;52.340;5.984;2022-11-25T04:25:27;8.75;95.42
47861;HTU21D;33620;52.340;5.984;2022-11-25T04:27:53;8.76;95.43
47861;HTU21D;33620;52.340;5.984;2022-11-25T04:30:18;8.75;95.40
47861;HTU21D;33620;52.340;5.984;2022-11-25T04:32:44;8.76;95.42
47861;HTU21D;33620;52.340;5.984;2022-11-25T04:35:09;8.75;95.39
47861;HTU21D;33620;52.340;5.984;2022-11-25T04:37:35;8.74;95.41
47861;HTU21D;33620;52.340;5.984;2022-11-25T04:40:00;8.74;95.43
47861;HTU21D;33620;52.340;5.984;2022-11-25T04:42:25;8.74;95.43
47861;HTU21D;33620;52.340;5.984;2022-11-25T04:44:58;8.74;95.43
47861;HTU21D;33620;52.340;5.984;2022-11-25T04:47:23;8.74;95.37
47861;HTU21D;33620;52.340;5.984;2022-11-25T04:49:49;8.73;95.43
47861;HTU21D;33620;52.340;5.984;2022-11-25T04:52:14;8.75;95.44
47861;HTU21D;33620;52.340;5.984;2022-11-25T04:54:39;8.73;95.35
47861;HTU21D;33620;52.340;5.984;2022-11-25T04:57:05;8.72;95.43
47861;HTU21D;33620;52.340;5.984;2022-11-25T04:59:30;8.74;95.43
47861;HTU21D;33620;52.340;5.984;2022-11-25T05:02:25;8.73;95.48
47861;HTU21D;33620;52.340;5.984;2022-11-25T05:04:54;8.74;95.52
47861;HTU21D;33620;52.340;5.984;2022-11-25T05:07:22;8.74;95.59
47861;HTU21D;33620;52.340;5.984;2022-11-25T05:09:47;8.73;95.51
47861;HTU21D;33620;52.340;5.984;2022-11-25T05:12:16;8.72;95.47
47861;HTU21D;33620;52.340;5.984;2022-11-25T05:14:41;8.71;95.49
47861;HTU21D;33620;52.340;5.984;2022-11-25T05:17:12;8.66;95.49
47861;HTU21D;33620;52.340;5.984;2022-11-25T05:19:37;8.66;95.46
47861;HTU21D;33620;52.340;5.984;2022-11-25T05:22:02;8.65;95.39
47861;HTU21D;33620;52.340;5.984;2022-11-25T05:24:28;8.65;95.36
47861;HTU21D;33620;52.340;5.984;2022-11-25T05:26:53;8.63;95.36
47861;HTU21D;33620;52.340;5.984;2022-11-25T05:29:18;8.61;95.23
47861;HTU21D;33620;52.340;5.984;2022-11-25T05:31:44;8.60;95.22
47861;HTU21D;33620;52.340;5.984;2022-11-25T05:34:09;8.57;95.16
47861;HTU21D;33620;52.340;5.984;2022-11-25T05:36:35;8.58;95.23
47861;HTU21D;33620;52.340;5.984;2022-11-25T05:39:01;8.58;95.27
47861;HTU21D;33620;52.340;5.984;2022-11-25T05:41:26;8.55;95.29
47861;HTU21D;33620;52.340;5.984;2022-11-25T05:43:52;8.57;95.31
47861;HTU21D;33620;52.340;5.984;2022-11-25T05:46:19;8.58;95.30
47861;HTU21D;33620;52.340;5.984;2022-11-25T05:48:44;8.57;95.30
47861;HTU21D;33620;52.340;5.984;2022-11-25T05:51:10;8.56;95.28
47861;HTU21D;33620;52.340;5.984;2022-11-25T05:53:35;8.55;95.25
47861;HTU21D;33620;52.340;5.984;2022-11-25T05:56:03;8.55;95.26
47861;HTU21D;33620;52.340;5.984;2022-11-25T05:58:30;8.53;95.19
47861;HTU21D;33620;52.340;5.984;2022-11-25T06:00:55;8.51;95.09
47861;HTU21D;33620;52.340;5.984;2022-11-25T06:03:24;8.50;95.08
47861;HTU21D;33620;52.340;5.984;2022-11-25T06:05:50;8.48;95.04
47861;HTU21D;33620;52.340;5.984;2022-11-25T06:08:15;8.48;95.01
47861;HTU21D;33620;52.340;5.984;2022-11-25T06:10:41;8.47;95.02
47861;HTU21D;33620;52.340;5.984;2022-11-25T06:13:07;8.47;95.03
47861;HTU21D;33620;52.340;5.984;2022-11-25T06:15:33;8.46;95.10
47861;HTU21D;33620;52.340;5.984;2022-11-25T06:17:59;8.44;94.98
47861;HTU21D;33620;52.340;5.984;2022-11-25T06:20:24;8.43;94.96
47861;HTU21D;33620;52.340;5.984;2022-11-25T06:22:51;8.42;94.74
47861;HTU21D;33620;52.340;5.984;2022-11-25T06:25:16;8.37;94.76
47861;HTU21D;33620;52.340;5.984;2022-11-25T06:27:42;8.35;94.74
47861;HTU21D;33620;52.340;5.984;2022-11-25T06:30:07;8.33;94.69
47861;HTU21D;33620;52.340;5.984;2022-11-25T06:32:33;8.34;94.81
47861;HTU21D;33620;52.340;5.984;2022-11-25T06:34:59;8.31;94.72
47861;HTU21D;33620;52.340;5.984;2022-11-25T06:37:24;8.29;94.66
47861;HTU21D;33620;52.340;5.984;2022-11-25T06:39:49;8.28;94.58
47861;HTU21D;33620;52.340;5.984;2022-11-25T06:42:15;8.23;94.56
47861;HTU21D;33620;52.340;5.984;2022-11-25T06:44:40;8.21;94.64
47861;HTU21D;33620;52.340;5.984;2022-11-25T06:47:05;8.21;94.75
47861;HTU21D;33620;52.340;5.984;2022-11-25T06:49:31;8.19;94.91
47861;HTU21D;33620;52.340;5.984;2022-11-25T06:51:56;8.21;94.96
47861;HTU21D;33620;52.340;5.984;2022-11-25T06:54:22;8.21;95.20
47861;HTU21D;33620;52.340;5.984;2022-11-25T06:56:47;8.22;95.11
47861;HTU21D;33620;52.340;5.984;2022-11-25T06:59:16;8.20;95.12
47861;HTU21D;33620;52.340;5.984;2022-11-25T07:01:42;8.20;95.10
47861;HTU21D;33620;52.340;5.984;2022-11-25T07:04:07;8.22;95.23
47861;HTU21D;33620;52.340;5.984;2022-11-25T07:06:33;8.21;95.20
47861;HTU21D;33620;52.340;5.984;2022-11-25T07:08:59;8.21;95.18
47861;HTU21D;33620;52.340;5.984;2022-11-25T07:11:35;8.21;95.21
47861;HTU21D;33620;52.340;5.984;2022-11-25T07:14:08;8.19;95.15
47861;HTU21D;33620;52.340;5.984;2022-11-25T07:16:36;8.19;95.21
47861;HTU21D;33620;52.340;5.984;2022-11-25T07:19:02;8.21;95.44
47861;HTU21D;33620;52.340;5.984;2022-11-25T07:21:28;8.20;95.46
47861;HTU21D;33620;52.340;5.984;2022-11-25T07:23:54;8.20;95.51
47861;HTU21D;33620;52.340;5.984;2022-11-25T07:26:22;8.19;95.52
47861;HTU21D;33620;52.340;5.984;2022-11-25T07:28:49;8.18;95.52
47861;HTU21D;33620;52.340;5.984;2022-11-25T07:31:35;8.18;95.65
47861;HTU21D;33620;52.340;5.984;2022-11-25T07:34:03;8.18;95.69
47861;HTU21D;33620;52.340;5.984;2022-11-25T07:36:30;8.20;95.82
47861;HTU21D;33620;52.340;5.984;2022-11-25T07:38:57;8.20;95.82
47861;HTU21D;33620;52.340;5.984;2022-11-25T07:41:24;8.19;95.75
47861;HTU21D;33620;52.340;5.984;2022-11-25T07:43:59;8.19;95.78
47861;HTU21D;33620;52.340;5.984;2022-11-25T07:46:27;8.20;95.71
47861;HTU21D;33620;52.340;5.984;2022-11-25T07:48:55;8.21;95.79
47861;HTU21D;33620;52.340;5.984;2022-11-25T07:51:23;8.22;95.78
47861;HTU21D;33620;52.340;5.984;2022-11-25T07:53:50;8.21;95.77
47861;HTU21D;33620;52.340;5.984;2022-11-25T07:56:16;8.22;95.86
47861;HTU21D;33620;52.340;5.984;2022-11-25T07:58:42;8.22;95.87
47861;HTU21D;33620;52.340;5.984;2022-11-25T08:01:09;8.24;95.97
47861;HTU21D;33620;52.340;5.984;2022-11-25T08:03:36;8.24;95.96
47861;HTU21D;33620;52.340;5.984;2022-11-25T08:06:02;8.26;95.95
47861;HTU21D;33620;52.340;5.984;2022-11-25T08:08:28;8.26;96.08
47861;HTU21D;33620;52.340;5.984;2022-11-25T08:10:53;8.28;96.06
47861;HTU21D;33620;52.340;5.984;2022-11-25T08:13:19;8.28;95.92
47861;HTU21D;33620;52.340;5.984;2022-11-25T08:15:44;8.28;96.10
47861;HTU21D;33620;52.340;5.984;2022-11-25T08:18:10;8.29;96.10
47861;HTU21D;33620;52.340;5.984;2022-11-25T08:20:35;8.28;96.11
47861;HTU21D;33620;52.340;5.984;2022-11-25T08:23:01;8.29;96.12
47861;HTU21D;33620;52.340;5.984;2022-11-25T08:25:26;8.29;96.07
47861;HTU21D;33620;52.340;5.984;2022-11-25T08:27:54;8.28;96.09
47861;HTU21D;33620;52.340;5.984;2022-11-25T08:30:20;8.29;96.13
47861;HTU21D;33620;52.340;5.984;2022-11-25T08:32:48;8.29;96.11
47861;HTU21D;33620;52.340;5.984;2022-11-25T08:35:14;8.28;96.25
47861;HTU21D;33620;52.340;5.984;2022-11-25T08:37:39;8.31;96.22
47861;HTU21D;33620;52.340;5.984;2022-11-25T08:40:05;8.32;96.21
47861;HTU21D;33620;52.340;5.984;2022-11-25T08:42:30;8.32;96.23
47861;HTU21D;33620;52.340;5.984;2022-11-25T08:44:56;8.36;96.23
47861;HTU21D;33620;52.340;5.984;2022-11-25T08:47:22;8.38;96.02
47861;HTU21D;33620;52.340;5.984;2022-11-25T08:49:52;8.41;95.97
47861;HTU21D;33620;52.340;5.984;2022-11-25T08:52:18;8.43;95.88
47861;HTU21D;33620;52.340;5.984;2022-11-25T08:54:43;8.45;95.71
47861;HTU21D;33620;52.340;5.984;2022-11-25T08:57:09;8.44;95.63
47861;HTU21D;33620;52.340;5.984;2022-11-25T08:59:34;8.49;95.62
47861;HTU21D;33620;52.340;5.984;2022-11-25T09:02:00;8.48;95.51
47861;HTU21D;33620;52.340;5.984;2022-11-25T09:04:25;8.50;95.26
47861;HTU21D;33620;52.340;5.984;2022-11-25T09:06:51;8.53;95.06
47861;HTU21D;33620;52.340;5.984;2022-11-25T09:09:16;8.55;94.81
47861;HTU21D;33620;52.340;5.984;2022-11-25T09:11:41;8.56;94.70
47861;HTU21D;33620;52.340;5.984;2022-11-25T09:14:07;8.59;94.40
47861;HTU21D;33620;52.340;5.984;2022-11-25T09:16:32;8.61;94.36
47861;HTU21D;33620;52.340;5.984;2022-11-25T09:18:57;8.62;94.37
47861;HTU21D;33620;52.340;5.984;2022-11-25T09:21:24;8.62;94.28
47861;HTU21D;33620;52.340;5.984;2022-11-25T09:23:50;8.65;94.16
47861;HTU21D;33620;52.340;5.984;2022-11-25T09:26:20;8.67;94.04
47861;HTU21D;33620;52.340;5.984;2022-11-25T09:28:45;8.68;93.91
47861;HTU21D;33620;52.340;5.984;2022-11-25T09:31:11;8.71;93.83
47861;HTU21D;33620;52.340;5.984;2022-11-25T09:33:36;8.73;93.73
47861;HTU21D;33620;52.340;5.984;2022-11-25T09:36:02;8.77;93.74
47861;HTU21D;33620;52.340;5.984;2022-11-25T09:38:28;8.76;93.78
47861;HTU21D;33620;52.340;5.984;2022-11-25T09:41:00;8.79;93.76
47861;HTU21D;33620;52.340;5.984;2022-11-25T09:51:39;8.89;92.95
47861;HTU21D;33620;52.340;5.984;2022-11-25T09:54:12;8.94;93.03
47861;HTU21D;33620;52.340;5.984;2022-11-25T09:56:51;8.97;92.61
47861;HTU21D;33620;52.340;5.984;2022-11-25T09:59:34;8.97;92.65
47861;HTU21D;33620;52.340;5.984;2022-11-25T10:02:12;9.03;92.67
47861;HTU21D;33620;52.340;5.984;2022-11-25T10:04:50;9.04;92.54
47861;HTU21D;33620;52.340;5.984;2022-11-25T10:07:21;9.08;92.60
47861;HTU21D;33620;52.340;5.984;2022-11-25T10:09:49;9.10;92.43
47861;HTU21D;33620;52.340;5.984;2022-11-25T10:12:23;9.15;92.47
47861;HTU21D;33620;52.340;5.984;2022-11-25T10:14:53;9.16;92.05
47861;HTU21D;33620;52.340;5.984;2022-11-25T10:17:43;9.18;92.21
47861;HTU21D;33620;52.340;5.984;2022-11-25T10:22:43;9.25;91.69
47861;HTU21D;33620;52.340;5.984;2022-11-25T10:25:18;9.32;91.82
47861;HTU21D;33620;52.340;5.984;2022-11-25T10:28:19;9.32;91.78
47861;HTU21D;33620;52.340;5.984;2022-11-25T10:41:30;9.48;91.41
47861;HTU21D;33620;52.340;5.984;2022-11-25T10:43:57;9.54;91.27
47861;HTU21D;33620;52.340;5.984;2022-11-25T10:46:42;9.56;90.79
47861;HTU21D;33620;52.340;5.984;2022-11-25T10:51:47;9.59;90.62
47861;HTU21D;33620;52.340;5.984;2022-11-25T10:54:24;9.64;90.50
47861;HTU21D;33620;52.340;5.984;2022-11-25T10:56:53;9.68;90.69
47861;HTU21D;33620;52.340;5.984;2022-11-25T10:59:37;9.69;90.60
47861;HTU21D;33620;52.340;5.984;2022-11-25T11:02:27;9.68;89.74
47861;HTU21D;33620;52.340;5.984;2022-11-25T11:07:38;9.80;89.89
47861;HTU21D;33620;52.340;5.984;2022-11-25T11:10:22;9.82;89.66
47861;HTU21D;33620;52.340;5.984;2022-11-25T11:12:56;9.85;89.61
47861;HTU21D;33620;52.340;5.984;2022-11-25T11:15:27;9.89;89.15
47861;HTU21D;33620;52.340;5.984;2022-11-25T11:17:54;9.93;89.08
47861;HTU21D;33620;52.340;5.984;2022-11-25T11:20:24;9.91;88.81
47861;HTU21D;33620;52.340;5.984;2022-11-25T11:22:59;9.95;88.83
47861;HTU21D;33620;52.340;5.984;2022-11-25T11:25:28;9.99;88.67
47861;HTU21D;33620;52.340;5.984;2022-11-25T11:27:55;9.99;88.25
47861;HTU21D;33620;52.340;5.984;2022-11-25T11:30:27;10.01;87.82
47861;HTU21D;33620;52.340;5.984;2022-11-25T11:33:05;10.06;88.09
47861;HTU21D;33620;52.340;5.984;2022-11-25T11:35:52;10.10;88.25
47861;HTU21D;33620;52.340;5.984;2022-11-25T11:38:34;10.10;87.82
47861;HTU21D;33620;52.340;5.984;2022-11-25T11:57:08;10.29;87.25
47861;HTU21D;33620;52.340;5.984;2022-11-25T11:59:45;10.31;87.12
47861;HTU21D;33620;52.340;5.984;2022-11-25T12:05:14;10.38;86.70
47861;HTU21D;33620;52.340;5.984;2022-11-25T12:10:40;10.48;86.77
47861;HTU21D;33620;52.340;5.984;2022-11-25T12:13:20;10.49;86.76
47861;HTU21D;33620;52.340;5.984;2022-11-25T12:18:53;10.52;86.33
47861;HTU21D;33620;52.340;5.984;2022-11-25T12:24:36;10.58;86.52
47861;HTU21D;33620;52.340;5.984;2022-11-25T12:27:11;10.55;86.08
47861;HTU21D;33620;52.340;5.984;2022-11-25T12:29:41;10.64;86.70
47861;HTU21D;33620;52.340;5.984;2022-11-25T12:35:06;10.77;86.93
47861;HTU21D;33620;52.340;5.984;2022-11-25T12:38:04;10.81;86.40
47861;HTU21D;33620;52.340;5.984;2022-11-25T12:43:48;10.86;86.03
47861;HTU21D;33620;52.340;5.984;2022-11-25T12:46:26;10.87;85.86
47861;HTU21D;33620;52.340;5.984;2022-11-25T12:48:56;10.86;85.89
47861;HTU21D;33620;52.340;5.984;2022-11-25T13:07:28;10.96;86.51
47861;HTU21D;33620;52.340;5.984;2022-11-25T13:15:34;10.90;86.57
47861;HTU21D;33620;52.340;5.984;2022-11-25T13:18:09;10.92;86.84
47861;HTU21D;33620;52.340;5.984;2022-11-25T13:20:42;10.88;86.80
47861;HTU21D;33620;52.340;5.984;2022-11-25T13:25:39;10.88;87.07
47861;HTU21D;33620;52.340;5.984;2022-11-25T13:28:26;10.86;86.91
47861;HTU21D;33620;52.340;5.984;2022-11-25T13:30:53;10.84;87.01
47861;HTU21D;33620;52.340;5.984;2022-11-25T13:35:48;10.82;87.33
47861;HTU21D;33620;52.340;5.984;2022-11-25T13:41:02;10.78;87.56
47861;HTU21D;33620;52.340;5.984;2022-11-25T13:43:27;10.73;87.67
47861;HTU21D;33620;52.340;5.984;2022-11-25T13:45:54;10.73;87.72
47861;HTU21D;33620;52.340;5.984;2022-11-25T13:48:23;10.72;87.93
47861;HTU21D;33620;52.340;5.984;2022-11-25T13:50:51;10.74;88.05
47861;HTU21D;33620;52.340;5.984;2022-11-25T13:53:36;10.74;88.00
47861;HTU21D;33620;52.340;5.984;2022-11-25T14:01:40;10.74;88.12
47861;HTU21D;33620;52.340;5.984;2022-11-25T14:04:11;10.74;88.06
47861;HTU21D;33620;52.340;5.984;2022-11-25T14:06:48;10.74;88.00
47861;HTU21D;33620;52.340;5.984;2022-11-25T14:17:20;10.63;88.14
47861;HTU21D;33620;52.340;5.984;2022-11-25T14:25:26;10.52;88.38
47861;HTU21D;33620;52.340;5.984;2022-11-25T14:28:22;10.50;88.47
47861;HTU21D;33620;52.340;5.984;2022-11-25T14:30:51;10.46;88.56
47861;HTU21D;33620;52.340;5.984;2022-11-25T14:33:21;10.44;88.66
47861;HTU21D;33620;52.340;5.984;2022-11-25T14:35:51;10.40;88.76
47861;HTU21D;33620;52.340;5.984;2022-11-25T14:38:27;10.37;88.89
47861;HTU21D;33620;52.340;5.984;2022-11-25T14:41:02;10.35;88.94
47861;HTU21D;33620;52.340;5.984;2022-11-25T14:43:38;10.31;89.15
47861;HTU21D;33620;52.340;5.984;2022-11-25T14:46:13;10.30;89.30
47861;HTU21D;33620;52.340;5.984;2022-11-25T14:48:40;10.26;89.50
47861;HTU21D;33620;52.340;5.984;2022-11-25T14:51:08;10.25;89.53
47861;HTU21D;33620;52.340;5.984;2022-11-25T14:53:43;10.23;89.58
47861;HTU21D;33620;52.340;5.984;2022-11-25T14:56:11;10.20;89.57
47861;HTU21D;33620;52.340;5.984;2022-11-25T14:58:41;10.16;89.75
47861;HTU21D;33620;52.340;5.984;2022-11-25T15:03:51;10.12;89.84
47861;HTU21D;33620;52.340;5.984;2022-11-25T15:06:27;10.09;89.86
47861;HTU21D;33620;52.340;5.984;2022-11-25T15:08:57;10.07;89.86
47861;HTU21D;33620;52.340;5.984;2022-11-25T15:11:25;10.04;89.78
47861;HTU21D;33620;52.340;5.984;2022-11-25T15:13:59;10.01;89.86
47861;HTU21D;33620;52.340;5.984;2022-11-25T15:16:31;9.99;89.99
47861;HTU21D;33620;52.340;5.984;2022-11-25T15:19:00;9.98;89.98
47861;HTU21D;33620;52.340;5.984;2022-11-25T15:21:29;9.95;90.00
47861;HTU21D;33620;52.340;5.984;2022-11-25T15:23:56;9.91;89.99
47861;HTU21D;33620;52.340;5.984;2022-11-25T15:26:32;9.86;90.10
47861;HTU21D;33620;52.340;5.984;2022-11-25T15:29:01;9.82;90.11
47861;HTU21D;33620;52.340;5.984;2022-11-25T15:31:30;9.78;90.19
47861;HTU21D;33620;52.340;5.984;2022-11-25T15:34:01;9.77;90.14
47861;HTU21D;33620;52.340;5.984;2022-11-25T15:36:27;9.74;90.09
47861;HTU21D;33620;52.340;5.984;2022-11-25T15:38:53;9.72;90.24
47861;HTU21D;33620;52.340;5.984;2022-11-25T15:41:33;9.71;90.23
47861;HTU21D;33620;52.340;5.984;2022-11-25T15:44:02;9.71;90.39
47861;HTU21D;33620;52.340;5.984;2022-11-25T15:46:29;9.70;90.38
47861;HTU21D;33620;52.340;5.984;2022-11-25T15:49:00;9.69;90.42
47861;HTU21D;33620;52.340;5.984;2022-11-25T15:51:42;9.67;90.63
47861;HTU21D;33620;52.340;5.984;2022-11-25T15:56:38;9.67;90.84
47861;HTU21D;33620;52.340;5.984;2022-11-25T16:18:21;9.40;90.36
47861;HTU21D;33620;52.340;5.984;2022-11-25T16:20:54;9.34;90.47
47861;HTU21D;33620;52.340;5.984;2022-11-25T16:23:21;9.31;90.53
47861;HTU21D;33620;52.340;5.984;2022-11-25T16:25:56;9.29;90.43
47861;HTU21D;33620;52.340;5.984;2022-11-25T16:28:23;9.24;90.36
47861;HTU21D;33620;52.340;5.984;2022-11-25T16:30:49;9.20;90.41
47861;HTU21D;33620;52.340;5.984;2022-11-25T16:33:15;9.16;90.31
47861;HTU21D;33620;52.340;5.984;2022-11-25T16:35:41;9.11;90.25
47861;HTU21D;33620;52.340;5.984;2022-11-25T16:38:07;9.09;90.24
47861;HTU21D;33620;52.340;5.984;2022-11-25T16:40:35;9.08;90.30
47861;HTU21D;33620;52.340;5.984;2022-11-25T16:43:02;9.06;90.02
47861;HTU21D;33620;52.340;5.984;2022-11-25T16:45:28;9.02;89.89
47861;HTU21D;33620;52.340;5.984;2022-11-25T16:47:54;8.95;89.66
47861;HTU21D;33620;52.340;5.984;2022-11-25T16:50:20;8.92;89.82
47861;HTU21D;33620;52.340;5.984;2022-11-25T16:52:46;8.87;89.74
47861;HTU21D;33620;52.340;5.984;2022-11-25T16:55:12;8.85;89.88
47861;HTU21D;33620;52.340;5.984;2022-11-25T16:57:39;8.81;89.81
47861;HTU21D;33620;52.340;5.984;2022-11-25T17:00:10;8.78;89.67
47861;HTU21D;33620;52.340;5.984;2022-11-25T17:02:36;8.76;89.68
47861;HTU21D;33620;52.340;5.984;2022-11-25T17:05:22;8.73;89.58
47861;HTU21D;33620;52.340;5.984;2022-11-25T17:07:49;8.68;89.46
47861;HTU21D;33620;52.340;5.984;2022-11-25T17:10:15;8.63;89.70
47861;HTU21D;33620;52.340;5.984;2022-11-25T17:12:41;8.61;89.86
47861;HTU21D;33620;52.340;5.984;2022-11-25T17:15:13;8.58;89.92
47861;HTU21D;33620;52.340;5.984;2022-11-25T17:17:40;8.56;89.71
47861;HTU21D;33620;52.340;5.984;2022-11-25T17:20:09;8.51;89.57
47861;HTU21D;33620;52.340;5.984;2022-11-25T17:22:35;8.50;89.73
47861;HTU21D;33620;52.340;5.984;2022-11-25T17:25:00;8.46;89.75
47861;HTU21D;33620;52.340;5.984;2022-11-25T17:27:28;8.44;89.63
47861;HTU21D;33620;52.340;5.984;2022-11-25T17:29:56;8.42;89.39
47861;HTU21D;33620;52.340;5.984;2022-11-25T17:32:22;8.35;89.25
47861;HTU21D;33620;52.340;5.984;2022-11-25T17:34:49;8.32;89.14
47861;HTU21D;33620;52.340;5.984;2022-11-25T17:37:17;8.28;89.44
47861;HTU21D;33620;52.340;5.984;2022-11-25T17:39:42;8.27;89.92
47861;HTU21D;33620;52.340;5.984;2022-11-25T17:42:16;8.23;90.63
47861;HTU21D;33620;52.340;5.984;2022-11-25T17:44:42;8.23;91.02
47861;HTU21D;33620;52.340;5.984;2022-11-25T17:47:13;8.26;91.18
47861;HTU21D;33620;52.340;5.984;2022-11-25T17:49:39;8.26;91.31
47861;HTU21D;33620;52.340;5.984;2022-11-25T17:52:05;8.26;91.34
47861;HTU21D;33620;52.340;5.984;2022-11-25T17:54:31;8.28;91.40
47861;HTU21D;33620;52.340;5.984;2022-11-25T17:56:56;8.30;91.42
47861;HTU21D;33620;52.340;5.984;2022-11-25T17:59:28;8.27;91.13
47861;HTU21D;33620;52.340;5.984;2022-11-25T18:01:54;8.24;91.15
47861;HTU21D;33620;52.340;5.984;2022-11-25T18:04:30;8.24;91.35
47861;HTU21D;33620;52.340;5.984;2022-11-25T18:06:56;8.23;91.56